Time;durP1;ratioP1;P1;durP2;ratioP2;P2;SDS_P1;SDS_P2;PMS_P1;PMS_P2;Temp;Humidity;BMP_temperature;BMP_pressure;BME280_temperature;BME280_humidity;BME280_pressure;Samples;Min_cycle;Max_cycle;Signal;HPM_P1;HPM_P2
2023/04/06 00:01:35;;;;;;;93.07;58.03;;;3.10;99.90;;;;;;4887777;29;20045;-77
2023/04/06 00:04:02;;;;;;;93.13;57.40;;;3.10;99.90;;;;;;4884668;29;20493;-78
2023/04/06 00:06:30;;;;;;;90.30;54.58;;;3.10;99.90;;;;;;4887457;29;20048;-75
2023/04/06 00:08:57;;;;;;;84.57;50.80;;;3.10;99.90;;;;;;4885203;29;20045;-78
2023/04/06 00:11:27;;;;;;;78.68;48.95;;;3.00;99.90;;;;;;4872641;29;20056;-76
2023/04/06 00:13:54;;;;;;;83.47;50.72;;;2.90;99.90;;;;;;4888369;29;20037;-77
2023/04/06 00:16:21;;;;;;;84.95;53.40;;;3.00;99.90;;;;;;4891736;29;20615;-77
2023/04/06 00:18:49;;;;;;;85.22;51.40;;;3.00;99.90;;;;;;4889287;29;20052;-76
2023/04/06 00:21:16;;;;;;;81.50;46.97;;;3.00;99.90;;;;;;4886966;29;20059;-76
2023/04/06 00:23:44;;;;;;;71.93;46.30;;;3.00;99.90;;;;;;4887723;29;20048;-76
2023/04/06 00:26:12;;;;;;;76.07;45.95;;;2.80;99.90;;;;;;4887058;29;20697;-77
2023/04/06 00:28:45;;;;;;;71.28;45.42;;;2.80;99.90;;;;;;4869866;29;20051;-77
2023/04/06 00:31:12;;;;;;;71.22;43.75;;;2.70;99.90;;;;;;4885430;29;20112;-78
2023/04/06 00:33:40;;;;;;;79.82;47.63;;;2.70;99.90;;;;;;4886632;29;20048;-78
2023/04/06 00:36:07;;;;;;;82.25;51.70;;;2.80;99.90;;;;;;4885610;29;20415;-76
2023/04/06 00:38:35;;;;;;;88.97;54.97;;;2.70;99.90;;;;;;4886220;29;20044;-75
2023/04/06 00:41:04;;;;;;;87.85;56.58;;;2.70;99.90;;;;;;4885813;29;20532;-77
2023/04/06 00:43:32;;;;;;;86.55;55.53;;;2.70;99.90;;;;;;4886191;29;20041;-77
2023/04/06 00:46:01;;;;;;;113.93;71.70;;;2.70;99.90;;;;;;4875224;29;20049;-77
2023/04/06 00:48:30;;;;;;;89.72;54.58;;;2.70;99.90;;;;;;4887339;29;20417;-76
2023/04/06 00:50:59;;;;;;;86.13;53.78;;;2.70;99.90;;;;;;4886217;29;20421;-76
2023/04/06 00:53:26;;;;;;;71.82;49.17;;;2.70;99.90;;;;;;4889329;29;20037;-77
2023/04/06 00:55:54;;;;;;;74.60;49.33;;;2.80;99.90;;;;;;4896383;29;20053;-75
2023/04/06 00:58:23;;;;;;;76.47;51.47;;;2.70;99.90;;;;;;4872802;29;20055;-78
2023/04/06 01:00:56;;;;;;;78.57;53.40;;;2.80;99.90;;;;;;4872067;29;20044;-78
2023/04/06 01:03:26;;;;;;;75.15;55.78;;;2.80;99.90;;;;;;4873439;29;20040;-76
2023/04/06 01:05:57;;;;;;;83.90;57.45;;;2.80;99.90;;;;;;4886050;29;20048;-77
2023/04/06 01:08:30;;;;;;;80.13;56.53;;;2.80;99.90;;;;;;4872357;29;20574;-77
2023/04/06 01:11:12;;;;;;;82.25;55.63;;;2.80;99.90;;;;;;4880774;29;20053;-78
2023/04/06 01:13:39;;;;;;;77.93;53.45;;;2.70;99.90;;;;;;4875400;29;20085;-77
2023/04/06 01:16:11;;;;;;;76.72;54.92;;;2.70;99.90;;;;;;4889106;29;20045;-76
2023/04/06 01:19:07;;;;;;;78.60;54.13;;;2.70;99.90;;;;;;4886667;29;20049;-77
2023/04/06 01:21:35;;;;;;;74.95;50.65;;;2.80;99.90;;;;;;4871552;29;20071;-77
2023/04/06 01:24:30;;;;;;;75.60;51.08;;;2.80;99.90;;;;;;4889998;29;20426;-76
2023/04/06 01:27:03;;;;;;;59.50;43.67;;;2.80;99.90;;;;;;4886799;29;20505;-77
2023/04/06 01:29:54;;;;;;;69.00;48.22;;;2.80;99.90;;;;;;4872585;29;20529;-77
2023/04/06 01:32:51;;;;;;;66.28;46.63;;;2.90;99.90;;;;;;4881285;29;20206;-76
2023/04/06 01:35:29;;;;;;;67.90;45.35;;;2.90;99.90;;;;;;4870531;29;20051;-76
2023/04/06 01:38:08;;;;;;;57.00;40.30;;;2.90;99.90;;;;;;4871704;29;20535;-75
2023/04/06 01:40:39;;;;;;;52.47;35.88;;;2.90;99.90;;;;;;4873047;29;20071;-76
2023/04/06 01:43:07;;;;;;;64.88;41.35;;;2.80;99.90;;;;;;4879140;29;20045;-75
2023/04/06 01:45:42;;;;;;;;;;;2.70;99.90;;;;;;4870384;29;20043;-75
2023/04/06 01:48:21;;;;;;;70.30;46.38;;;2.70;99.90;;;;;;4888134;29;19979;-77
2023/04/06 01:50:50;;;;;;;66.05;47.80;;;2.70;99.90;;;;;;4870836;29;20060;-75
2023/04/06 01:53:24;;;;;;;67.18;47.22;;;2.70;99.90;;;;;;4871648;29;20474;-78
2023/04/06 01:55:55;;;;;;;68.40;45.53;;;2.70;99.90;;;;;;4868936;29;20072;-75
2023/04/06 01:58:28;;;;;;;54.65;40.15;;;2.60;99.90;;;;;;4887999;29;20045;-76
2023/04/06 02:00:56;;;;;;;54.40;38.15;;;2.70;99.90;;;;;;4889692;29;20052;-79
2023/04/06 02:03:29;;;;;;;59.60;41.55;;;2.70;99.90;;;;;;4870080;29;20041;-76
2023/04/06 02:06:05;;;;;;;61.15;40.60;;;2.80;99.90;;;;;;4870943;29;20040;-76
2023/04/06 02:08:38;;;;;;;59.53;39.65;;;2.80;99.90;;;;;;4870444;29;20080;-78
2023/04/06 02:11:07;;;;;;;55.47;37.03;;;2.80;99.90;;;;;;4885335;29;20088;-78
2023/04/06 02:13:41;;;;;;;55.00;35.70;;;2.80;99.90;;;;;;4870430;29;20052;-77
2023/04/06 02:16:10;;;;;;;51.05;35.92;;;2.80;99.90;;;;;;4871234;29;20041;-78
2023/04/06 02:18:38;;;;;;;55.53;35.20;;;2.80;99.90;;;;;;4873195;29;20136;-78
2023/04/06 02:21:06;;;;;;;58.70;40.05;;;2.80;99.90;;;;;;4871482;29;20167;-76
2023/04/06 02:23:33;;;;;;;56.83;35.40;;;2.90;99.90;;;;;;4888499;29;20048;-76
2023/04/06 02:26:01;;;;;;;54.67;35.08;;;2.80;99.90;;;;;;4868430;29;20097;-78
2023/04/06 02:28:30;;;;;;;60.60;38.28;;;2.80;99.90;;;;;;4877787;29;20681;-76
2023/04/06 02:30:58;;;;;;;52.97;35.58;;;2.90;99.90;;;;;;4886710;29;20045;-77
2023/04/06 02:33:28;;;;;;;56.17;37.38;;;2.90;99.90;;;;;;4869982;29;20059;-75
2023/04/06 02:35:55;;;;;;;54.28;34.95;;;2.90;99.90;;;;;;4883048;29;20057;-77
2023/04/06 02:38:23;;;;;;;55.65;37.47;;;2.90;99.90;;;;;;4869312;29;20375;-76
2023/04/06 02:40:53;;;;;;;54.42;36.40;;;2.80;99.90;;;;;;4886142;29;20053;-77
2023/04/06 02:43:26;;;;;;;56.60;36.03;;;2.70;99.90;;;;;;4869092;29;20036;-77
2023/04/06 02:46:02;;;;;;;;;;;2.60;99.90;;;;;;4867865;29;20037;-76
2023/04/06 02:48:36;;;;;;;60.70;41.80;;;2.60;99.90;;;;;;4866591;29;19932;-76
2023/04/06 02:51:03;;;;;;;56.22;40.88;;;2.60;99.90;;;;;;4865595;29;20059;-76
2023/04/06 02:53:31;;;;;;;63.70;42.95;;;2.60;99.90;;;;;;4867087;29;20152;-76
2023/04/06 02:55:59;;;;;;;60.67;44.00;;;2.60;99.90;;;;;;4866896;29;20151;-78
2023/04/06 02:58:33;;;;;;;59.87;42.57;;;2.60;99.90;;;;;;4868850;29;20051;-76
2023/04/06 03:01:02;;;;;;;58.97;41.63;;;2.50;99.90;;;;;;4889016;29;20527;-78
2023/04/06 03:03:30;;;;;;;60.15;42.05;;;2.50;99.90;;;;;;4869481;29;20412;-77
2023/04/06 03:05:59;;;;;;;56.15;39.83;;;2.50;99.90;;;;;;4882086;29;20133;-77
2023/04/06 03:08:30;;;;;;;59.20;42.70;;;2.50;99.90;;;;;;4884405;29;20060;-76
2023/04/06 03:10:59;;;;;;;63.50;45.72;;;2.50;99.90;;;;;;4870009;29;20045;-76
2023/04/06 03:13:34;;;;;;;;;;;2.50;99.90;;;;;;4884513;29;20044;-76
2023/04/06 03:16:03;;;;;;;66.13;46.33;;;2.50;99.90;;;;;;4869141;29;19966;-78
2023/04/06 03:18:30;;;;;;;62.58;43.35;;;2.50;99.90;;;;;;4870526;29;20074;-76
2023/04/06 03:21:00;;;;;;;64.55;45.35;;;2.40;99.90;;;;;;4868492;29;20112;-77
2023/04/06 03:23:35;;;;;;;64.60;46.08;;;2.40;99.90;;;;;;4885736;29;20052;-77
2023/04/06 03:26:03;;;;;;;67.82;46.88;;;2.30;99.90;;;;;;4870012;29;20507;-76
2023/04/06 03:28:31;;;;;;;91.28;59.28;;;2.30;99.90;;;;;;4885925;29;20053;-77
2023/04/06 03:31:04;;;;;;;102.88;66.15;;;2.40;99.90;;;;;;4869533;29;20050;-78
2023/04/06 03:33:45;;;;;;;105.63;65.18;;;2.40;99.90;;;;;;4871488;29;20185;-77
2023/04/06 03:36:22;;;;;;;89.68;57.80;;;2.40;99.90;;;;;;4870326;29;20508;-77
2023/04/06 03:38:50;;;;;;;90.93;58.38;;;2.30;99.90;;;;;;4871545;29;20075;-75
2023/04/06 03:41:17;;;;;;;85.30;57.00;;;2.30;99.90;;;;;;4887658;29;20072;-76
2023/04/06 03:43:52;;;;;;;78.80;54.33;;;2.30;99.90;;;;;;4871035;29;20127;-76
2023/04/06 03:46:21;;;;;;;78.03;54.00;;;2.20;99.90;;;;;;4884883;29;20041;-75
2023/04/06 03:48:52;;;;;;;74.43;49.70;;;2.20;99.90;;;;;;4870903;29;20058;-78
2023/04/06 03:51:21;;;;;;;72.95;50.22;;;2.20;99.90;;;;;;4869876;29;20047;-76
2023/04/06 03:53:49;;;;;;;73.80;48.60;;;2.20;99.90;;;;;;4868807;29;20116;-77
2023/04/06 03:56:16;;;;;;;72.40;47.95;;;2.20;99.90;;;;;;4880154;29;20049;-77
2023/04/06 03:58:45;;;;;;;68.45;46.20;;;2.20;99.90;;;;;;4886605;29;20442;-77
2023/04/06 04:01:12;;;;;;;67.90;45.95;;;2.20;99.90;;;;;;4888639;29;20053;-78
2023/04/06 04:03:41;;;;;;;80.68;55.83;;;2.20;99.90;;;;;;4871074;29;20037;-78
2023/04/06 04:06:08;;;;;;;71.75;48.85;;;2.10;99.90;;;;;;4884891;29;20842;-75
2023/04/06 04:08:36;;;;;;;92.97;58.65;;;2.10;99.90;;;;;;4871550;29;20053;-77
2023/04/06 04:11:03;;;;;;;90.72;58.03;;;2.10;99.90;;;;;;4887015;29;20089;-77
2023/04/06 04:13:31;;;;;;;70.20;48.50;;;2.00;99.90;;;;;;4885925;29;20460;-76
2023/04/06 04:15:59;;;;;;;86.45;57.67;;;1.90;99.90;;;;;;4869093;29;20048;-77
2023/04/06 04:18:27;;;;;;;82.63;55.30;;;1.90;99.90;;;;;;4870070;29;20049;-76
2023/04/06 04:20:56;;;;;;;83.18;53.92;;;2.00;99.90;;;;;;4875950;29;20357;-76
2023/04/06 04:23:24;;;;;;;71.80;47.17;;;2.00;99.90;;;;;;4870095;29;20148;-78
2023/04/06 04:25:52;;;;;;;66.32;45.60;;;2.00;99.90;;;;;;4885549;29;20112;-77
2023/04/06 04:28:19;;;;;;;57.75;40.95;;;2.10;99.90;;;;;;4870582;29;20040;-76
2023/04/06 04:30:47;;;;;;;61.15;42.03;;;2.20;99.90;;;;;;4870304;29;20052;-77
2023/04/06 04:33:15;;;;;;;59.38;41.30;;;2.20;99.90;;;;;;4870156;29;20041;-75
2023/04/06 04:35:44;;;;;;;63.20;42.58;;;2.20;99.90;;;;;;4872498;29;20079;-77
2023/04/06 04:38:17;;;;;;;63.72;40.80;;;2.20;99.90;;;;;;4874327;29;20053;-77
2023/04/06 04:40:47;;;;;;;62.03;42.47;;;2.30;99.90;;;;;;4886176;29;20061;-77
2023/04/06 04:43:15;;;;;;;68.75;45.10;;;2.30;99.90;;;;;;4886510;29;20049;-76
2023/04/06 04:45:42;;;;;;;62.10;39.05;;;2.30;99.90;;;;;;4869762;29;20048;-77
2023/04/06 04:48:26;;;;;;;73.97;44.83;;;2.40;99.90;;;;;;4870398;29;20536;-77
2023/04/06 04:50:59;;;;;;;95.97;55.03;;;2.40;99.90;;;;;;4869367;29;20104;-76
2023/04/06 04:53:32;;;;;;;74.35;47.90;;;2.50;99.90;;;;;;4877404;29;20061;-75
2023/04/06 04:56:07;;;;;;;74.85;49.97;;;2.50;99.90;;;;;;4870271;29;20049;-76
2023/04/06 04:58:35;;;;;;;68.07;45.38;;;2.60;99.90;;;;;;4880087;29;20065;-77
2023/04/06 05:01:03;;;;;;;91.55;54.63;;;2.70;99.90;;;;;;4878299;29;20042;-77
2023/04/06 05:03:33;;;;;;;88.32;53.38;;;2.60;99.90;;;;;;4870522;29;20111;-78
2023/04/06 05:06:05;;;;;;;83.90;52.65;;;2.70;99.90;;;;;;4885045;29;20616;-77
2023/04/06 05:08:38;;;;;;;79.97;52.78;;;2.80;99.90;;;;;;4869560;29;20049;-77
2023/04/06 05:11:06;;;;;;;90.40;55.00;;;2.90;99.90;;;;;;4871810;29;20037;-77
2023/04/06 05:13:38;;;;;;;86.30;56.40;;;3.10;99.90;;;;;;4868294;29;20049;-75
2023/04/06 05:16:12;;;;;;;95.53;59.47;;;3.20;99.90;;;;;;4871210;29;20191;-75
2023/04/06 05:18:40;;;;;;;102.18;62.63;;;3.20;99.90;;;;;;4874926;29;20055;-77
2023/04/06 05:21:08;;;;;;;94.97;61.13;;;3.30;99.90;;;;;;4886090;29;20071;-78
2023/04/06 05:23:57;;;;;;;108.43;63.17;;;3.40;99.90;;;;;;4884211;29;20466;-75
2023/04/06 05:26:25;;;;;;;180.63;97.40;;;3.70;99.90;;;;;;4868909;29;20079;-77
2023/04/06 05:28:57;;;;;;;131.60;77.85;;;3.90;99.90;;;;;;4884808;29;20139;-75
2023/04/06 05:31:27;;;;;;;113.47;71.70;;;3.90;99.90;;;;;;4873430;29;20045;-78
2023/04/06 05:33:54;;;;;;;104.70;67.13;;;3.90;99.90;;;;;;4877291;29;20060;-76
2023/04/06 05:36:32;;;;;;;105.30;63.88;;;3.90;99.90;;;;;;4886705;29;20056;-78
2023/04/06 05:39:06;;;;;;;91.65;60.75;;;3.90;99.90;;;;;;4868394;29;20100;-77
2023/04/06 05:41:40;;;;;;;105.25;66.72;;;4.00;99.90;;;;;;4880425;29;20041;-77
2023/04/06 05:44:10;;;;;;;95.20;62.53;;;4.10;99.90;;;;;;4872836;29;20381;-78
2023/04/06 05:46:39;;;;;;;97.80;65.07;;;4.30;99.90;;;;;;4869388;29;20398;-80
2023/04/06 05:49:10;;;;;;;111.53;76.50;;;4.40;99.90;;;;;;4867904;29;20080;-78
2023/04/06 05:51:38;;;;;;;85.05;57.00;;;4.50;99.90;;;;;;4869762;29;20044;-76
2023/04/06 05:54:07;;;;;;;89.88;58.13;;;4.50;99.90;;;;;;4869954;29;20107;-78
2023/04/06 05:56:35;;;;;;;93.35;60.75;;;4.40;99.90;;;;;;4871268;29;20104;-75
2023/04/06 05:59:03;;;;;;;100.43;61.25;;;4.50;99.90;;;;;;4869671;29;20126;-78
2023/04/06 06:01:33;;;;;;;90.28;59.97;;;4.70;99.90;;;;;;4875528;29;20615;-77
2023/04/06 06:04:02;;;;;;;91.35;60.83;;;5.00;99.90;;;;;;4869417;29;20057;-76
2023/04/06 06:06:32;;;;;;;86.32;57.90;;;5.30;99.90;;;;;;4884709;29;20048;-76
2023/04/06 06:09:36;;;;;;;79.88;53.40;;;5.60;99.90;;;;;;4887433;29;20060;-81
2023/04/06 06:12:20;;;;;;;78.15;51.08;;;6.10;99.90;;;;;;4869531;29;20585;-75
2023/04/06 06:14:50;;;;;;;79.05;55.00;;;6.40;92.30;;;;;;4868264;29;20104;-75
2023/04/06 06:17:19;;;;;;;78.20;49.42;;;6.30;1.00;;;;;;4873191;29;20049;-76
2023/04/06 06:19:48;;;;;;;70.63;46.33;;;6.40;1.00;;;;;;4878335;29;20057;-77
2023/04/06 06:22:17;;;;;;;80.18;52.05;;;6.50;1.00;;;;;;4899127;29;20060;-76
2023/04/06 06:24:49;;;;;;;71.38;46.00;;;6.60;1.00;;;;;;4876712;29;20052;-76
2023/04/06 06:27:20;;;;;;;85.80;52.22;;;6.70;1.00;;;;;;4884330;29;20064;-76
2023/04/06 06:29:48;;;;;;;75.13;46.53;;;6.80;99.90;;;;;;4870940;29;20085;-78
2023/04/06 06:32:16;;;;;;;68.32;43.25;;;6.90;1.00;;;;;;4875848;29;20064;-76
2023/04/06 06:34:44;;;;;;;62.03;43.58;;;6.90;99.90;;;;;;4883231;29;20041;-76
2023/04/06 06:37:12;;;;;;;70.80;45.65;;;7.00;1.00;;;;;;4868746;29;20133;-76
2023/04/06 06:39:40;;;;;;;69.65;47.05;;;7.20;1.00;;;;;;4886965;29;20074;-77
2023/04/06 06:42:08;;;;;;;76.63;50.67;;;7.30;99.90;;;;;;4867960;29;20045;-75
2023/04/06 06:44:53;;;;;;;59.72;37.45;;;7.60;1.00;;;;;;4865739;29;20056;-77
2023/04/06 06:47:20;;;;;;;48.90;33.25;;;7.40;99.90;;;;;;4884353;29;20045;-77
2023/04/06 06:49:48;;;;;;;53.53;33.05;;;7.20;1.00;;;;;;4883471;29;20049;-76
2023/04/06 06:52:15;;;;;;;43.63;29.30;;;6.90;1.00;;;;;;4883356;29;20210;-78
2023/04/06 06:54:43;;;;;;;46.28;30.73;;;6.40;1.00;;;;;;4884270;29;20060;-77
2023/04/06 06:57:12;;;;;;;50.75;31.90;;;6.20;1.00;;;;;;4883105;29;20037;-76
2023/04/06 06:59:40;;;;;;;41.03;27.92;;;6.40;1.00;;;;;;4871393;29;20071;-75
2023/04/06 07:02:07;;;;;;;42.38;27.60;;;6.60;1.00;;;;;;4869848;29;20629;-75
2023/04/06 07:04:35;;;;;;;41.95;26.77;;;6.60;1.00;;;;;;4868409;29;20056;-76
2023/04/06 07:07:03;;;;;;;46.03;26.83;;;6.50;1.00;;;;;;4866944;29;20064;-76
2023/04/06 07:09:31;;;;;;;37.25;25.05;;;6.50;1.00;;;;;;4866937;29;20076;-76
2023/04/06 07:11:58;;;;;;;39.47;25.88;;;6.40;1.00;;;;;;4868041;29;20049;-75
2023/04/06 07:14:27;;;;;;;39.25;25.75;;;6.30;1.00;;;;;;4883100;29;20045;-77
2023/04/06 07:16:55;;;;;;;43.30;26.67;;;6.60;1.00;;;;;;4885184;29;20132;-75
2023/04/06 07:19:22;;;;;;;41.08;27.92;;;6.70;1.00;;;;;;4867728;29;20471;-77
2023/04/06 07:21:50;;;;;;;41.67;26.65;;;6.90;1.00;;;;;;4888405;29;20045;-75
2023/04/06 07:24:18;;;;;;;38.45;25.58;;;6.80;1.00;;;;;;4868749;29;20473;-75
2023/04/06 07:26:46;;;;;;;41.13;24.92;;;6.80;1.00;;;;;;4886198;29;20043;-75
2023/04/06 07:29:15;;;;;;;33.60;23.50;;;6.90;1.00;;;;;;4870068;29;20044;-77
2023/04/06 07:31:44;;;;;;;35.28;22.15;;;6.90;1.00;;;;;;4885302;29;20087;-77
2023/04/06 07:34:13;;;;;;;33.83;21.98;;;7.00;1.00;;;;;;4869268;29;20732;-75
2023/04/06 07:36:42;;;;;;;34.33;22.17;;;7.20;1.00;;;;;;4869693;29;20055;-76
2023/04/06 07:39:10;;;;;;;31.13;19.88;;;7.30;1.00;;;;;;4878529;29;20041;-75
2023/04/06 07:41:38;;;;;;;35.88;24.42;;;7.50;1.00;;;;;;4871139;29;20049;-76
2023/04/06 07:44:06;;;;;;;33.55;21.80;;;7.70;1.00;;;;;;4888680;29;20045;-75
2023/04/06 07:46:37;;;;;;;30.58;20.75;;;7.50;1.00;;;;;;4869939;29;20041;-75
2023/04/06 07:49:07;;;;;;;34.33;18.80;;;7.30;1.00;;;;;;4885780;29;20051;-76
2023/04/06 07:51:38;;;;;;;29.15;20.10;;;7.10;1.00;;;;;;4868131;29;20049;-74
2023/04/06 07:54:05;;;;;;;32.95;21.50;;;7.10;1.00;;;;;;4869340;29;20053;-75
2023/04/06 07:56:49;;;;;;;35.75;22.58;;;7.10;1.00;;;;;;4885233;29;20052;-76
2023/04/06 07:59:18;;;;;;;33.50;20.35;;;7.20;1.00;;;;;;4922466;29;20060;-76
2023/04/06 08:01:45;;;;;;;32.05;21.88;;;7.20;1.00;;;;;;4916911;29;20049;-73
2023/04/06 08:04:14;;;;;;;31.42;20.17;;;7.00;1.00;;;;;;4912494;29;20056;-73
2023/04/06 08:06:41;;;;;;;32.42;20.33;;;7.20;99.90;;;;;;4913190;29;20131;-75
2023/04/06 08:09:09;;;;;;;31.25;21.15;;;7.30;99.90;;;;;;4915783;29;20044;-72
2023/04/06 08:11:36;;;;;;;34.78;23.60;;;7.70;99.90;;;;;;4916929;29;20047;-74
2023/04/06 08:14:04;;;;;;;42.55;23.20;;;8.10;99.90;;;;;;4898733;29;20053;-72
2023/04/06 08:16:31;;;;;;;35.25;19.92;;;8.60;99.90;;;;;;4905606;29;20514;-76
2023/04/06 08:18:58;;;;;;;33.75;20.58;;;8.90;99.90;;;;;;4916017;29;20127;-74
2023/04/06 08:21:27;;;;;;;30.45;19.15;;;8.80;99.90;;;;;;4906583;29;20374;-75
2023/04/06 08:23:55;;;;;;;31.27;17.75;;;8.90;99.90;;;;;;4915986;29;20555;-75
2023/04/06 08:26:22;;;;;;;28.13;18.27;;;8.70;99.90;;;;;;4915281;29;20040;-74
2023/04/06 08:28:50;;;;;;;20.88;13.68;;;8.60;99.90;;;;;;4915073;29;20067;-76
2023/04/06 08:31:17;;;;;;;25.05;14.75;;;8.70;99.90;;;;;;4914570;29;20076;-76
2023/04/06 08:33:45;;;;;;;23.52;15.13;;;8.50;99.90;;;;;;4914590;29;20708;-76
2023/04/06 08:36:14;;;;;;;28.30;16.00;;;8.50;99.90;;;;;;4915216;29;20087;-75
2023/04/06 08:38:43;;;;;;;28.60;16.70;;;8.50;99.90;;;;;;4915989;29;20044;-74
2023/04/06 08:41:12;;;;;;;20.27;12.10;;;8.60;99.90;;;;;;4933710;29;20036;-76
2023/04/06 08:43:44;;;;;;;21.42;10.20;;;8.70;99.90;;;;;;4931965;29;20092;-76
2023/04/06 08:46:12;;;;;;;20.13;10.00;;;9.00;99.90;;;;;;4914801;29;20488;-76
2023/04/06 08:48:41;;;;;;;15.38;9.77;;;9.10;99.90;;;;;;4916335;29;20135;-75
2023/04/06 08:51:09;;;;;;;14.55;8.48;;;9.30;99.90;;;;;;4915333;29;20059;-76
2023/04/06 08:53:37;;;;;;;13.63;7.60;;;9.30;99.90;;;;;;4915398;29;20055;-74
2023/04/06 08:56:07;;;;;;;14.32;8.70;;;9.40;99.90;;;;;;4915081;29;20424;-77
2023/04/06 08:58:37;;;;;;;15.57;8.90;;;9.50;99.90;;;;;;4914008;29;20047;-76
2023/04/06 09:01:09;;;;;;;18.05;9.85;;;9.70;99.90;;;;;;4915843;29;20416;-75
2023/04/06 09:03:40;;;;;;;15.20;8.52;;;9.80;99.90;;;;;;4916288;29;20527;-75
2023/04/06 09:06:08;;;;;;;13.75;8.38;;;9.90;99.90;;;;;;4914365;29;20063;-75
2023/04/06 09:08:37;;;;;;;18.65;10.48;;;9.80;99.90;;;;;;4916467;29;20048;-74
2023/04/06 09:11:07;;;;;;;19.73;10.38;;;10.00;99.90;;;;;;4915275;29;20044;-76
2023/04/06 09:13:46;;;;;;;17.17;9.80;;;10.30;99.90;;;;;;4915439;29;20051;-74
2023/04/06 09:16:15;;;;;;;13.75;8.90;;;10.90;1.00;;;;;;4915359;29;20048;-76
2023/04/06 09:18:43;;;;;;;13.20;8.77;;;10.90;1.00;;;;;;4916036;29;20068;-75
2023/04/06 09:21:10;;;;;;;13.05;8.77;;;11.00;1.00;;;;;;4905360;29;20711;-76
2023/04/06 09:23:38;;;;;;;16.25;9.00;;;11.10;1.00;;;;;;4915820;29;20100;-74
2023/04/06 09:26:11;;;;;;;17.15;10.13;;;11.10;1.00;;;;;;4914826;29;20051;-75
2023/04/06 09:28:51;;;;;;;11.70;7.38;;;11.30;1.00;;;;;;4915268;29;20040;-74
2023/04/06 09:31:24;;;;;;;15.32;8.25;;;11.30;1.00;;;;;;4914291;29;20044;-73
2023/04/06 09:33:51;;;;;;;17.67;7.85;;;10.90;1.00;;;;;;4914467;29;20526;-77
2023/04/06 09:36:19;;;;;;;12.13;7.55;;;11.20;1.00;;;;;;4916876;29;20073;-77
2023/04/06 09:38:57;;;;;;;13.23;7.07;;;11.10;1.00;;;;;;4918562;29;20605;-76
2023/04/06 09:41:28;;;;;;;13.02;7.47;;;10.70;1.00;;;;;;4899449;29;20059;-77
2023/04/06 09:44:04;;;;;;;15.32;8.85;;;10.60;1.00;;;;;;4906032;29;20067;-76
2023/04/06 09:46:33;;;;;;;;;;;10.60;1.00;;;;;;4915009;29;20047;-77
2023/04/06 09:49:02;;;;;;;17.20;10.10;;;10.50;99.90;;;;;;4915011;29;19937;-77
2023/04/06 09:51:32;;;;;;;14.15;8.55;;;10.80;99.90;;;;;;4915689;29;20404;-74
2023/04/06 09:54:02;;;;;;;12.52;8.73;;;11.00;99.90;;;;;;4914673;29;20052;-76
2023/04/06 09:56:38;;;;;;;14.90;8.88;;;10.90;99.90;;;;;;4915182;29;20052;-75
2023/04/06 09:59:13;;;;;;;19.48;12.40;;;10.70;99.90;;;;;;4914372;29;20063;-73
2023/04/06 10:01:41;;;;;;;13.60;8.77;;;10.60;1.00;;;;;;4912390;29;20068;-73
2023/04/06 10:04:20;;;;;;;14.63;8.35;;;10.30;1.00;;;;;;4921926;29;20043;-77
2023/04/06 10:06:52;;;;;;;13.35;8.40;;;10.40;1.00;;;;;;4927681;29;20058;-76
2023/04/06 10:09:22;;;;;;;12.93;8.68;;;10.40;1.00;;;;;;4900519;29;20059;-74
2023/04/06 10:11:51;;;;;;;14.70;8.68;;;10.50;1.00;;;;;;4915149;29;20055;-74
2023/04/06 10:14:19;;;;;;;13.18;7.72;;;10.50;1.00;;;;;;4914426;29;20059;-78
2023/04/06 10:16:50;;;;;;;13.23;8.50;;;10.60;1.00;;;;;;4915328;29;20127;-73
2023/04/06 10:19:27;;;;;;;14.45;8.48;;;10.40;1.00;;;;;;4913355;29;20040;-75
2023/04/06 10:21:58;;;;;;;12.50;7.80;;;10.60;1.00;;;;;;4914102;29;20115;-74
2023/04/06 10:24:26;;;;;;;13.80;7.97;;;10.50;1.00;;;;;;4913670;29;20522;-76
2023/04/06 10:27:01;;;;;;;11.48;7.70;;;10.60;1.00;;;;;;4914039;29;20044;-75
2023/04/06 10:29:29;;;;;;;13.48;7.18;;;10.70;99.90;;;;;;4916415;29;20064;-73
2023/04/06 10:31:57;;;;;;;18.80;11.07;;;10.80;99.90;;;;;;4914907;29;20055;-77
2023/04/06 10:34:35;;;;;;;12.63;7.85;;;11.10;1.00;;;;;;4914201;29;20052;-76
2023/04/06 10:37:12;;;;;;;12.27;7.57;;;11.10;1.00;;;;;;4912429;29;20618;-76
2023/04/06 10:39:48;;;;;;;12.60;8.90;;;11.10;1.00;;;;;;4897391;29;20103;-77
2023/04/06 10:42:17;;;;;;;16.63;8.77;;;11.20;99.90;;;;;;4914454;29;20059;-73
2023/04/06 10:44:46;;;;;;;12.57;7.82;;;11.20;99.90;;;;;;4915109;29;20044;-76
2023/04/06 10:47:19;;;;;;;12.40;8.45;;;11.50;1.00;;;;;;4915289;29;20044;-75
2023/04/06 10:49:46;;;;;;;15.88;9.40;;;11.60;1.00;;;;;;4914665;29;20044;-76
2023/04/06 10:52:14;;;;;;;18.42;11.18;;;11.60;1.00;;;;;;4914216;29;20599;-76
2023/04/06 10:54:44;;;;;;;10.90;7.57;;;11.50;1.00;;;;;;4915094;29;20044;-77
2023/04/06 10:57:13;;;;;;;13.40;7.80;;;11.30;1.00;;;;;;4914312;29;21548;-76
2023/04/06 10:59:46;;;;;;;14.68;9.15;;;11.00;1.00;;;;;;4897106;29;20056;-75
2023/04/06 11:02:22;;;;;;;15.73;9.05;;;11.00;1.00;;;;;;4912621;29;20032;-76
2023/04/06 11:04:59;;;;;;;13.38;8.02;;;11.20;1.00;;;;;;4895213;29;20559;-77
2023/04/06 11:07:29;;;;;;;12.23;8.18;;;11.20;1.00;;;;;;4911387;29;20616;-76
2023/04/06 11:09:57;;;;;;;14.45;8.50;;;11.10;1.00;;;;;;4910765;29;20059;-77
2023/04/06 11:12:25;;;;;;;12.90;7.90;;;11.00;1.00;;;;;;4894526;29;20050;-76
2023/04/06 11:15:04;;;;;;;12.20;8.27;;;10.90;99.90;;;;;;4909413;29;20075;-78
2023/04/06 11:17:32;;;;;;;11.98;7.97;;;10.90;1.00;;;;;;4913613;29;20048;-77
2023/04/06 11:19:59;;;;;;;12.02;8.07;;;11.20;1.00;;;;;;4912353;29;20036;-77
2023/04/06 11:22:27;;;;;;;12.75;8.57;;;11.20;1.00;;;;;;4912996;29;20501;-75
2023/04/06 11:25:05;;;;;;;12.45;8.05;;;11.20;1.00;;;;;;4914869;29;20064;-77
2023/04/06 11:27:32;;;;;;;14.80;9.57;;;11.20;99.90;;;;;;4920651;29;20048;-75
2023/04/06 11:30:02;;;;;;;15.32;8.43;;;11.20;1.00;;;;;;4921204;29;20068;-76
2023/04/06 11:32:30;;;;;;;12.40;7.97;;;11.10;1.00;;;;;;4917420;29;20044;-78
2023/04/06 11:34:59;;;;;;;14.35;7.25;;;11.10;1.00;;;;;;4912304;29;20048;-75
2023/04/06 11:37:28;;;;;;;15.02;7.93;;;11.30;1.00;;;;;;4916441;29;20056;-75
2023/04/06 11:39:56;;;;;;;12.77;7.80;;;11.10;99.90;;;;;;4920510;29;20041;-75
2023/04/06 11:42:25;;;;;;;13.43;7.68;;;11.00;55.90;;;;;;4915475;29;20125;-76
2023/04/06 11:44:54;;;;;;;17.67;8.70;;;11.00;99.90;;;;;;4914696;29;20061;-78
2023/04/06 11:47:30;;;;;;;13.00;7.13;;;10.90;1.00;;;;;;4914544;29;20058;-76
2023/04/06 11:50:06;;;;;;;16.13;7.95;;;10.90;20.20;;;;;;4913976;29;20083;-80
2023/04/06 11:52:33;;;;;;;;;;;10.90;99.90;;;;;;4915510;29;20044;-77
2023/04/06 11:55:12;;;;;;;12.93;7.45;;;11.00;1.00;;;;;;4917192;29;20405;-76
2023/04/06 11:57:39;;;;;;;14.75;8.80;;;11.20;1.00;;;;;;4898396;29;20872;-75
2023/04/06 12:00:09;;;;;;;14.13;8.50;;;11.40;1.00;;;;;;4915553;29;20039;-78
2023/04/06 12:02:38;;;;;;;11.75;7.13;;;11.50;99.90;;;;;;4916331;29;20036;-76
2023/04/06 12:05:07;;;;;;;16.92;9.00;;;11.50;1.00;;;;;;4916054;29;20044;-75
2023/04/06 12:07:34;;;;;;;18.42;8.85;;;11.40;1.00;;;;;;4918652;29;20127;-75
2023/04/06 12:10:03;;;;;;;18.92;8.77;;;11.60;38.10;;;;;;4918391;29;20111;-77
2023/04/06 12:12:31;;;;;;;13.88;7.82;;;11.60;1.00;;;;;;4917015;29;20055;-77
2023/04/06 12:14:58;;;;;;;14.90;8.25;;;11.50;99.90;;;;;;4915162;29;20604;-77
2023/04/06 12:17:26;;;;;;;13.27;8.48;;;11.40;45.70;;;;;;4917546;29;20042;-73
2023/04/06 12:19:55;;;;;;;14.45;8.27;;;11.40;1.00;;;;;;4931167;29;20044;-76
2023/04/06 12:22:22;;;;;;;16.67;8.65;;;11.30;1.00;;;;;;4928468;29;20052;-75
2023/04/06 12:24:50;;;;;;;15.60;8.68;;;11.20;99.90;;;;;;4917622;29;20054;-78
2023/04/06 12:27:17;;;;;;;13.13;7.75;;;10.90;93.70;;;;;;4916382;29;20048;-79
2023/04/06 12:29:45;;;;;;;13.82;8.98;;;10.70;1.00;;;;;;4915661;29;20044;-77
2023/04/06 12:32:12;;;;;;;15.73;8.35;;;10.50;78.50;;;;;;4914215;29;20321;-77
2023/04/06 12:34:40;;;;;;;15.70;8.40;;;10.40;1.00;;;;;;4898485;29;20524;-76
2023/04/06 12:37:09;;;;;;;12.73;7.78;;;10.50;43.30;;;;;;4916088;29;20048;-75
2023/04/06 12:39:36;;;;;;;14.07;8.52;;;10.50;1.00;;;;;;4915486;29;20507;-77
2023/04/06 12:42:04;;;;;;;12.48;7.30;;;10.60;1.90;;;;;;4915638;29;20074;-79
2023/04/06 12:44:32;;;;;;;17.15;8.57;;;10.60;1.00;;;;;;4915661;29;20091;-76
2023/04/06 12:46:59;;;;;;;12.38;7.55;;;10.70;99.90;;;;;;4916307;29;20041;-75
2023/04/06 12:49:27;;;;;;;13.23;8.05;;;10.70;1.00;;;;;;4898769;29;20078;-75
2023/04/06 12:51:55;;;;;;;11.30;7.53;;;10.90;1.00;;;;;;4916713;29;20056;-75
2023/04/06 12:54:26;;;;;;;14.70;7.50;;;11.00;99.90;;;;;;4929316;29;20060;-76
2023/04/06 12:56:53;;;;;;;9.43;5.70;;;11.10;99.90;;;;;;4925175;29;20071;-76